Time;durP1;ratioP1;P1;durP2;ratioP2;P2;SDS_P1;SDS_P2;PMS_P1;PMS_P2;Temp;Humidity;BMP_temperature;BMP_pressure;BME280_temperature;BME280_humidity;BME280_pressure;Samples;Min_cycle;Max_cycle;Signal;HPM_P1;HPM_P2
2023/07/13 00:01:52;;;;;;;0.60;0.30;;;22.30;1.00;;;;;;5073291;28;20427;-58
2023/07/13 00:04:20;;;;;;;0.60;0.20;;;22.30;1.00;;;;;;5073787;28;20436;-57
2023/07/13 00:06:48;;;;;;;1.30;0.30;;;22.20;1.00;;;;;;5073008;28;20423;-58
2023/07/13 00:09:16;;;;;;;1.23;0.30;;;22.20;1.00;;;;;;5074344;28;20493;-59
2023/07/13 00:11:44;;;;;;;0.60;0.30;;;22.20;1.00;;;;;;5076477;28;20858;-56
2023/07/13 00:14:12;;;;;;;0.50;0.30;;;22.10;1.00;;;;;;5076506;28;20427;-57
2023/07/13 00:16:43;;;;;;;1.17;0.30;;;21.90;1.00;;;;;;5078080;28;20478;-57
2023/07/13 00:19:11;;;;;;;0.60;0.30;;;21.70;1.00;;;;;;5077224;28;20427;-56
2023/07/13 00:21:38;;;;;;;2.57;0.30;;;21.60;1.00;;;;;;5077755;28;20786;-54
2023/07/13 00:24:06;;;;;;;0.63;0.30;;;21.70;1.00;;;;;;5078423;28;20500;-56
2023/07/13 00:26:33;;;;;;;0.70;0.30;;;21.90;1.00;;;;;;5077950;28;20454;-56
2023/07/13 00:29:01;;;;;;;1.00;0.30;;;22.10;1.00;;;;;;5077765;28;20429;-54
2023/07/13 00:31:27;;;;;;;0.90;0.30;;;22.00;1.00;;;;;;5076578;28;20428;-58
2023/07/13 00:33:54;;;;;;;0.90;0.30;;;21.90;1.00;;;;;;5077441;28;20427;-52
2023/07/13 00:36:23;;;;;;;0.63;0.30;;;21.90;1.00;;;;;;5077514;28;20781;-56
2023/07/13 00:38:50;;;;;;;0.70;0.23;;;21.90;1.00;;;;;;5077417;28;20438;-53
2023/07/13 00:41:17;;;;;;;0.60;0.30;;;21.70;1.00;;;;;;5077862;28;20435;-57
2023/07/13 00:43:44;;;;;;;0.80;0.30;;;21.70;1.00;;;;;;5077400;28;20435;-56
2023/07/13 00:46:25;;;;;;;0.90;0.30;;;21.70;1.00;;;;;;5077014;28;20435;-57
2023/07/13 00:48:53;;;;;;;0.50;0.30;;;21.60;1.00;;;;;;5077666;28;20431;-58
2023/07/13 00:51:26;;;;;;;0.90;0.30;;;21.40;1.00;;;;;;5078031;28;20427;-58
2023/07/13 00:53:55;;;;;;;0.52;0.30;;;21.50;1.00;;;;;;5077888;28;20431;-55
2023/07/13 00:56:23;;;;;;;0.60;0.38;;;21.50;1.00;;;;;;5077370;28;20541;-55
2023/07/13 00:58:50;;;;;;;0.60;0.30;;;21.60;1.00;;;;;;5077525;28;20481;-57
2023/07/13 01:01:17;;;;;;;0.80;0.30;;;21.70;1.00;;;;;;5077757;28;20432;-56
2023/07/13 01:03:44;;;;;;;0.60;0.30;;;21.70;1.00;;;;;;5076999;28;20724;-55
2023/07/13 01:06:12;;;;;;;1.50;0.30;;;21.60;1.00;;;;;;5077034;28;20431;-56
2023/07/13 01:08:41;;;;;;;1.20;0.40;;;21.50;1.00;;;;;;5076056;28;20426;-58
2023/07/13 01:11:09;;;;;;;1.50;0.30;;;21.50;1.00;;;;;;5077840;28;20410;-55
2023/07/13 01:13:36;;;;;;;1.30;0.30;;;21.40;1.00;;;;;;5077327;28;20423;-57
2023/07/13 01:16:13;;;;;;;0.80;0.30;;;21.30;1.00;;;;;;5075803;28;20428;-57
2023/07/13 01:18:40;;;;;;;1.10;0.30;;;21.30;1.00;;;;;;5075729;28;20525;-57
2023/07/13 01:21:08;;;;;;;2.50;0.32;;;21.20;1.00;;;;;;5075274;28;20439;-57
2023/07/13 01:23:35;;;;;;;0.50;0.30;;;21.10;1.00;;;;;;5076235;28;20476;-57
2023/07/13 01:26:02;;;;;;;0.45;0.30;;;21.00;1.00;;;;;;5076321;28;20419;-55
2023/07/13 01:28:30;;;;;;;0.90;0.30;;;20.90;1.00;;;;;;5075987;28;20455;-56
2023/07/13 01:30:59;;;;;;;0.68;0.30;;;20.90;1.00;;;;;;5076293;28;20427;-55
2023/07/13 01:33:26;;;;;;;0.65;0.30;;;20.80;1.00;;;;;;5077225;28;20442;-58
2023/07/13 01:35:54;;;;;;;1.00;0.40;;;20.70;1.00;;;;;;5076752;28;20431;-57
2023/07/13 01:38:24;;;;;;;0.60;0.30;;;20.70;1.00;;;;;;5076358;28;20420;-55
2023/07/13 01:40:51;;;;;;;0.50;0.30;;;20.60;1.00;;;;;;5076412;28;20843;-56
2023/07/13 01:43:19;;;;;;;1.35;0.40;;;20.50;1.00;;;;;;5076183;28;20432;-56
2023/07/13 01:45:46;;;;;;;2.57;0.37;;;20.50;1.00;;;;;;5075772;28;20526;-57
2023/07/13 01:48:14;;;;;;;0.88;0.70;;;20.40;1.00;;;;;;5076309;28;20431;-56
2023/07/13 01:50:41;;;;;;;1.25;0.40;;;20.30;1.00;;;;;;5075540;28;20404;-55
2023/07/13 01:53:08;;;;;;;0.60;0.40;;;20.30;1.00;;;;;;5074546;28;20419;-57
2023/07/13 01:55:37;;;;;;;1.50;0.40;;;20.20;1.00;;;;;;5076130;28;20424;-57
2023/07/13 01:58:04;;;;;;;0.90;0.30;;;20.30;1.00;;;;;;5076297;28;20572;-57
2023/07/13 02:00:32;;;;;;;1.60;0.30;;;20.40;1.00;;;;;;5075062;28;20497;-58
2023/07/13 02:02:59;;;;;;;0.60;0.30;;;20.40;1.00;;;;;;5076319;28;20431;-58
2023/07/13 02:05:26;;;;;;;1.40;0.30;;;20.40;1.00;;;;;;5075717;28;20427;-59
2023/07/13 02:07:53;;;;;;;0.50;0.30;;;20.40;1.00;;;;;;5075364;28;20420;-57
2023/07/13 02:10:21;;;;;;;1.30;0.40;;;20.40;1.00;;;;;;5075464;28;20526;-58
2023/07/13 02:12:50;;;;;;;0.70;0.30;;;20.30;1.00;;;;;;5074511;28;20715;-58
2023/07/13 02:15:17;;;;;;;0.63;0.30;;;20.20;1.00;;;;;;5076004;28;20450;-58
2023/07/13 02:17:44;;;;;;;0.60;0.30;;;20.10;1.00;;;;;;5075771;28;20684;-58
2023/07/13 02:20:12;;;;;;;1.10;0.30;;;20.10;1.00;;;;;;5075739;28;20703;-57
2023/07/13 02:22:39;;;;;;;1.10;0.30;;;20.00;1.00;;;;;;5075244;28;20545;-58
2023/07/13 02:25:06;;;;;;;0.88;0.40;;;20.00;1.00;;;;;;5074481;28;20461;-58
2023/07/13 02:27:34;;;;;;;1.00;0.40;;;20.00;1.00;;;;;;5075403;28;20894;-57
2023/07/13 02:30:02;;;;;;;0.82;0.40;;;19.90;1.00;;;;;;5074912;28;20450;-57
2023/07/13 02:32:29;;;;;;;0.50;0.30;;;19.90;1.00;;;;;;5074454;28;20451;-57
2023/07/13 02:34:57;;;;;;;1.30;0.30;;;19.80;1.00;;;;;;5075009;28;20564;-56
2023/07/13 02:37:24;;;;;;;1.10;0.30;;;19.80;1.00;;;;;;5075597;28;20496;-57
2023/07/13 02:39:51;;;;;;;0.75;0.40;;;19.80;1.00;;;;;;5075719;28;20490;-57
2023/07/13 02:42:18;;;;;;;2.00;0.40;;;19.70;1.00;;;;;;5073546;28;20431;-56
2023/07/13 02:44:45;;;;;;;2.20;0.60;;;19.70;1.00;;;;;;5073178;28;20432;-60
2023/07/13 02:47:13;;;;;;;0.80;0.40;;;19.60;1.00;;;;;;5073587;28;20835;-56
2023/07/13 02:49:40;;;;;;;1.25;0.30;;;19.50;1.00;;;;;;5074529;28;20455;-57
2023/07/13 02:52:08;;;;;;;0.60;0.30;;;19.40;1.00;;;;;;5074443;28;20427;-57
2023/07/13 02:54:35;;;;;;;1.70;0.30;;;19.40;1.00;;;;;;5074816;28;20510;-56
2023/07/13 02:57:02;;;;;;;0.73;0.30;;;19.30;1.00;;;;;;5074829;28;20517;-55
2023/07/13 02:59:29;;;;;;;0.52;0.30;;;19.30;42.50;;;;;;5074949;28;20423;-57
2023/07/13 03:01:55;;;;;;;0.65;0.40;;;19.40;43.60;;;;;;5074494;28;20850;-57
2023/07/13 03:04:24;;;;;;;0.50;0.30;;;19.50;17.60;;;;;;5074143;28;20489;-56
2023/07/13 03:06:51;;;;;;;0.55;0.30;;;19.70;4.90;;;;;;5074210;28;20493;-58
2023/07/13 03:09:18;;;;;;;0.75;0.40;;;19.80;2.10;;;;;;5075076;28;20435;-57
2023/07/13 03:11:45;;;;;;;0.50;0.40;;;19.80;1.00;;;;;;5074586;28;20423;-58
2023/07/13 03:14:12;;;;;;;0.50;0.30;;;19.80;1.00;;;;;;5072634;28;20519;-54
2023/07/13 03:16:39;;;;;;;1.20;0.40;;;19.80;1.00;;;;;;5074753;28;20540;-56
2023/07/13 03:19:06;;;;;;;0.80;0.35;;;20.00;1.00;;;;;;5075033;28;20726;-56
2023/07/13 03:21:35;;;;;;;0.60;0.40;;;20.10;1.00;;;;;;5074760;28;20435;-56
2023/07/13 03:24:02;;;;;;;0.90;0.38;;;20.20;1.00;;;;;;5074727;28;20431;-56
2023/07/13 03:26:29;;;;;;;1.20;0.30;;;20.20;1.00;;;;;;5074071;28;20473;-57
2023/07/13 03:28:56;;;;;;;0.60;0.30;;;20.20;1.00;;;;;;5072349;28;20447;-56
2023/07/13 03:31:26;;;;;;;0.50;0.30;;;20.10;1.00;;;;;;5071852;28;20431;-58
2023/07/13 03:33:53;;;;;;;1.10;0.40;;;20.00;1.00;;;;;;5073293;28;20435;-56
2023/07/13 03:36:23;;;;;;;1.70;0.40;;;20.10;1.00;;;;;;5073128;28;20485;-58
2023/07/13 03:38:53;;;;;;;1.00;0.40;;;20.20;1.00;;;;;;5073133;28;20608;-57
2023/07/13 03:41:20;;;;;;;1.00;0.40;;;20.10;1.00;;;;;;5073259;28;20435;-56
2023/07/13 03:43:48;;;;;;;0.70;0.40;;;20.10;1.00;;;;;;5073060;28;20431;-55
2023/07/13 03:46:15;;;;;;;0.67;0.30;;;20.00;1.00;;;;;;5073745;28;20611;-57
2023/07/13 03:48:44;;;;;;;0.80;0.40;;;20.00;1.00;;;;;;5073477;28;20813;-54
2023/07/13 03:51:13;;;;;;;1.00;0.40;;;19.90;1.00;;;;;;5073942;28;20765;-57
2023/07/13 03:53:41;;;;;;;1.60;0.40;;;19.90;1.00;;;;;;5074416;28;20447;-56
2023/07/13 03:56:10;;;;;;;0.70;0.30;;;20.00;1.00;;;;;;5073534;28;20786;-55
2023/07/13 03:58:39;;;;;;;0.80;0.40;;;20.00;1.00;;;;;;5072837;28;20572;-56
2023/07/13 04:01:09;;;;;;;0.70;0.30;;;20.00;1.00;;;;;;5074416;28;20842;-57
2023/07/13 04:03:36;;;;;;;2.00;0.40;;;20.00;1.00;;;;;;5073394;28;20428;-55
2023/07/13 04:06:06;;;;;;;1.30;0.40;;;20.00;1.00;;;;;;5073312;28;20427;-58
2023/07/13 04:08:35;;;;;;;1.20;0.60;;;20.00;1.00;;;;;;5072186;28;20490;-55
2023/07/13 04:11:04;;;;;;;1.30;0.40;;;20.00;1.00;;;;;;5072611;28;20420;-54
2023/07/13 04:13:33;;;;;;;1.10;0.40;;;19.90;1.00;;;;;;5072796;28;20428;-54
2023/07/13 04:16:00;;;;;;;1.20;0.40;;;19.80;1.00;;;;;;5073223;28;20572;-57
2023/07/13 04:18:27;;;;;;;0.73;0.40;;;19.80;1.00;;;;;;5074023;28;20432;-54
2023/07/13 04:20:54;;;;;;;0.60;0.30;;;19.90;1.00;;;;;;5073659;28;20450;-57
2023/07/13 04:23:21;;;;;;;0.90;0.40;;;20.00;1.00;;;;;;5073891;28;20412;-56
2023/07/13 04:25:49;;;;;;;0.57;0.30;;;20.20;1.00;;;;;;5074302;28;20424;-57
2023/07/13 04:28:17;;;;;;;1.20;0.40;;;20.30;1.00;;;;;;5073802;28;20431;-55
2023/07/13 04:30:45;;;;;;;0.70;0.40;;;20.50;1.00;;;;;;5073179;28;20431;-58
2023/07/13 04:33:13;;;;;;;1.20;0.50;;;20.60;1.00;;;;;;5073908;28;20419;-56
2023/07/13 04:35:40;;;;;;;1.50;0.40;;;20.70;1.00;;;;;;5074065;28;20428;-56
2023/07/13 04:38:06;;;;;;;0.88;0.30;;;20.50;1.00;;;;;;5072387;28;20838;-56
2023/07/13 04:40:33;;;;;;;0.80;0.40;;;20.50;1.00;;;;;;5071693;28;20486;-55
2023/07/13 04:43:00;;;;;;;0.95;0.30;;;20.40;1.00;;;;;;5072426;28;20456;-57
2023/07/13 04:45:27;;;;;;;1.20;0.40;;;20.30;1.00;;;;;;5071728;28;20427;-55
2023/07/13 04:47:56;;;;;;;1.00;0.30;;;20.30;1.00;;;;;;5071488;28;20657;-56
2023/07/13 04:50:23;;;;;;;0.77;0.50;;;20.10;1.00;;;;;;5068493;28;20469;-53
2023/07/13 04:52:50;;;;;;;0.90;0.40;;;19.90;1.00;;;;;;5051016;28;20410;-51
2023/07/13 04:55:18;;;;;;;0.85;0.30;;;19.80;1.00;;;;;;5050377;28;20714;-55
2023/07/13 04:57:45;;;;;;;1.40;0.47;;;19.90;1.00;;;;;;5055275;28;20429;-54
2023/07/13 05:00:15;;;;;;;0.98;0.40;;;20.00;1.00;;;;;;5056359;28;20491;-55
2023/07/13 05:02:44;;;;;;;0.90;0.38;;;20.00;1.00;;;;;;5056497;28;20898;-56
2023/07/13 05:05:12;;;;;;;1.20;0.40;;;20.00;1.00;;;;;;5055925;28;20504;-55
2023/07/13 05:07:39;;;;;;;1.35;0.40;;;20.10;1.00;;;;;;5056454;28;20429;-54
2023/07/13 05:10:08;;;;;;;1.30;0.40;;;20.00;1.00;;;;;;5054550;28;20848;-55
2023/07/13 05:12:35;;;;;;;0.70;0.40;;;20.00;1.00;;;;;;5055206;28;20771;-56
2023/07/13 05:15:02;;;;;;;0.80;0.50;;;20.10;1.00;;;;;;5055255;28;20512;-53
2023/07/13 05:17:29;;;;;;;0.60;0.40;;;20.30;1.00;;;;;;5053998;28;20417;-52
2023/07/13 05:19:56;;;;;;;0.70;0.40;;;20.40;1.00;;;;;;5054151;28;20500;-56
2023/07/13 05:22:25;;;;;;;1.20;0.40;;;20.60;1.00;;;;;;5052785;28;20499;-54
2023/07/13 05:24:52;;;;;;;0.60;0.40;;;20.40;1.00;;;;;;5054409;28;20498;-54
2023/07/13 05:27:19;;;;;;;0.70;0.40;;;20.00;1.00;;;;;;5052884;28;20433;-56
2023/07/13 05:29:46;;;;;;;2.00;0.50;;;20.00;1.00;;;;;;5049059;28;20487;-56
2023/07/13 05:32:12;;;;;;;0.60;0.40;;;20.00;1.00;;;;;;5050684;28;20412;-57
2023/07/13 05:34:39;;;;;;;0.70;0.40;;;20.20;1.00;;;;;;5051696;28;20428;-56
2023/07/13 05:37:06;;;;;;;1.00;0.30;;;20.50;1.00;;;;;;5052185;28;20875;-55
2023/07/13 05:39:35;;;;;;;2.38;0.40;;;20.60;1.00;;;;;;5067094;28;20520;-56
2023/07/13 05:42:03;;;;;;;1.40;0.40;;;20.80;1.00;;;;;;5066821;28;20888;-56
2023/07/13 05:44:30;;;;;;;2.50;0.40;;;20.80;1.00;;;;;;5067512;28;20429;-54
2023/07/13 05:46:57;;;;;;;0.80;0.40;;;20.90;1.00;;;;;;5072438;28;20419;-54
2023/07/13 05:49:24;;;;;;;0.50;0.40;;;20.90;1.00;;;;;;5067481;28;20435;-54
2023/07/13 05:51:51;;;;;;;0.77;0.50;;;20.70;1.00;;;;;;5083153;28;20480;-54
2023/07/13 05:54:18;;;;;;;1.30;0.50;;;20.50;1.00;;;;;;5078486;28;20429;-55
2023/07/13 05:56:47;;;;;;;1.70;0.40;;;20.30;1.00;;;;;;5082204;28;20769;-56
2023/07/13 05:59:14;;;;;;;1.10;0.50;;;20.30;1.00;;;;;;5087428;28;20414;-53
2023/07/13 06:01:42;;;;;;;2.20;0.50;;;20.10;1.00;;;;;;5074384;28;20646;-55
2023/07/13 06:04:09;;;;;;;0.70;0.40;;;20.00;1.00;;;;;;5090506;28;20718;-53
2023/07/13 06:06:36;;;;;;;0.88;0.50;;;20.10;1.00;;;;;;5083973;28;20427;-51
2023/07/13 06:09:04;;;;;;;1.27;0.50;;;20.50;1.00;;;;;;5085860;28;20840;-54
2023/07/13 06:11:31;;;;;;;0.90;0.50;;;20.90;1.00;;;;;;5076831;28;20807;-51
2023/07/13 06:13:59;;;;;;;2.05;0.40;;;21.10;1.00;;;;;;5059305;28;20426;-56
2023/07/13 06:16:26;;;;;;;0.70;0.40;;;21.40;1.00;;;;;;5082573;28;20496;-56
2023/07/13 06:18:53;;;;;;;1.65;0.40;;;21.40;1.00;;;;;;5083469;28;20479;-57
2023/07/13 06:21:22;;;;;;;1.73;0.40;;;21.40;1.00;;;;;;5077234;28;20428;-55
2023/07/13 06:23:51;;;;;;;0.90;0.50;;;21.40;1.00;;;;;;5089977;28;20495;-55
2023/07/13 06:26:19;;;;;;;0.80;0.50;;;21.20;1.00;;;;;;5078448;28;20444;-56
2023/07/13 06:28:47;;;;;;;1.27;0.40;;;21.10;1.00;;;;;;5079595;28;20485;-58
2023/07/13 06:31:16;;;;;;;0.70;0.40;;;21.30;1.00;;;;;;5084684;28;20495;-56
2023/07/13 06:33:44;;;;;;;1.40;0.43;;;21.30;1.00;;;;;;5075244;28;20427;-57
2023/07/13 06:36:11;;;;;;;1.70;0.50;;;21.20;1.00;;;;;;5086976;28;20442;-55
2023/07/13 06:38:39;;;;;;;1.40;0.40;;;21.50;1.00;;;;;;5079859;28;20422;-53
2023/07/13 06:41:08;;;;;;;1.00;0.40;;;21.70;1.00;;;;;;5075921;28;20739;-54
2023/07/13 06:43:35;;;;;;;0.60;0.40;;;21.90;1.00;;;;;;5071431;28;20555;-56
2023/07/13 06:46:02;;;;;;;0.73;0.30;;;22.10;1.00;;;;;;5087555;28;20428;-54
2023/07/13 06:48:31;;;;;;;0.50;0.30;;;22.10;1.00;;;;;;5079106;28;20429;-54
2023/07/13 06:50:58;;;;;;;1.70;0.35;;;22.00;1.00;;;;;;5079336;28;20454;-55
2023/07/13 06:53:25;;;;;;;0.52;0.30;;;22.10;1.00;;;;;;5087438;28;20776;-50
2023/07/13 06:55:52;;;;;;;2.20;0.40;;;22.30;1.00;;;;;;5075901;28;20636;-52
2023/07/13 06:58:20;;;;;;;1.00;0.40;;;22.20;1.00;;;;;;5083220;28;20431;-50
2023/07/13 07:00:47;;;;;;;1.30;0.30;;;22.30;1.00;;;;;;5080557;28;20433;-54
2023/07/13 07:03:14;;;;;;;0.50;0.30;;;22.40;1.00;;;;;;5077196;28;20485;-53
2023/07/13 07:05:44;;;;;;;0.70;0.40;;;22.50;1.00;;;;;;5086369;28;20452;-49
2023/07/13 07:08:11;;;;;;;1.92;0.40;;;22.20;1.00;;;;;;5075404;28;20422;-54
2023/07/13 07:10:38;;;;;;;0.70;0.40;;;21.90;1.00;;;;;;5079789;28;20427;-53
2023/07/13 07:13:05;;;;;;;0.80;0.40;;;21.80;1.00;;;;;;5082589;28;20422;-53
2023/07/13 07:15:32;;;;;;;1.80;0.40;;;21.70;1.00;;;;;;5073706;28;20484;-54
2023/07/13 07:17:59;;;;;;;0.90;0.40;;;22.00;1.00;;;;;;5086633;28;20415;-52
2023/07/13 07:20:26;;;;;;;0.60;0.40;;;22.10;1.00;;;;;;5077630;28;20490;-55
2023/07/13 07:22:55;;;;;;;0.77;0.40;;;22.40;1.00;;;;;;5079307;28;20796;-57
2023/07/13 07:25:22;;;;;;;0.75;0.30;;;22.60;1.00;;;;;;5070518;28;20439;-56
2023/07/13 07:27:49;;;;;;;0.80;0.30;;;22.80;1.00;;;;;;5069968;28;20501;-54
2023/07/13 07:30:16;;;;;;;2.20;0.30;;;23.00;1.00;;;;;;5072981;28;20492;-54
2023/07/13 07:32:43;;;;;;;1.42;0.40;;;22.60;1.00;;;;;;5071815;28;20502;-54
2023/07/13 07:35:10;;;;;;;1.30;0.40;;;22.00;1.00;;;;;;5071432;28;20427;-54
2023/07/13 07:37:37;;;;;;;0.73;0.30;;;21.80;1.00;;;;;;5072353;28;20446;-56
2023/07/13 07:40:07;;;;;;;0.60;0.30;;;22.10;1.00;;;;;;5070409;28;20932;-55
2023/07/13 07:42:35;;;;;;;0.70;0.30;;;22.40;1.00;;;;;;5069664;28;21584;-56
2023/07/13 07:45:02;;;;;;;0.60;0.35;;;22.80;1.00;;;;;;5070109;28;20439;-56
2023/07/13 07:47:29;;;;;;;0.50;0.30;;;23.00;1.00;;;;;;5069917;28;20484;-56
2023/07/13 07:49:56;;;;;;;0.70;0.30;;;23.20;1.00;;;;;;5070693;28;20426;-55
2023/07/13 07:52:23;;;;;;;1.80;0.30;;;23.20;1.00;;;;;;5070053;28;20746;-55
2023/07/13 07:54:50;;;;;;;1.27;0.30;;;23.40;1.00;;;;;;5071098;28;20432;-51
2023/07/13 07:57:18;;;;;;;1.55;0.30;;;23.30;1.00;;;;;;5070710;28;20862;-51
2023/07/13 07:59:46;;;;;;;0.50;0.30;;;23.10;1.00;;;;;;5056190;28;20441;-53
2023/07/13 08:02:13;;;;;;;0.93;0.30;;;23.10;1.00;;;;;;5069311;28;20504;-55
2023/07/13 08:04:39;;;;;;;0.70;0.30;;;23.10;1.00;;;;;;5068163;28;20765;-54
2023/07/13 08:07:07;;;;;;;0.60;0.30;;;22.90;1.00;;;;;;5071974;28;20486;-53
2023/07/13 08:09:34;;;;;;;0.60;0.30;;;22.90;1.00;;;;;;5070359;28;20534;-51
2023/07/13 08:12:01;;;;;;;0.93;0.40;;;23.10;1.00;;;;;;5075487;28;20521;-52
2023/07/13 08:14:29;;;;;;;1.30;0.50;;;23.30;1.00;;;;;;5070445;28;20425;-53
2023/07/13 08:16:56;;;;;;;1.02;0.40;;;23.40;1.00;;;;;;5071654;28;20430;-54
2023/07/13 08:19:23;;;;;;;0.95;0.50;;;23.60;1.00;;;;;;5070412;28;20489;-54
2023/07/13 08:21:50;;;;;;;1.38;0.30;;;23.60;1.00;;;;;;5068788;28;20431;-54
2023/07/13 08:24:18;;;;;;;0.90;0.30;;;23.70;1.00;;;;;;5070587;28;20427;-55
2023/07/13 08:26:46;;;;;;;0.80;0.30;;;23.80;1.00;;;;;;5070085;28;20520;-55
2023/07/13 08:29:13;;;;;;;0.60;0.30;;;23.80;1.00;;;;;;5070007;28;20510;-55
2023/07/13 08:31:41;;;;;;;1.50;0.40;;;23.90;1.00;;;;;;5071396;28;20437;-55
2023/07/13 08:34:08;;;;;;;0.60;0.40;;;23.90;1.00;;;;;;5074349;28;20423;-53
2023/07/13 08:36:35;;;;;;;0.60;0.30;;;23.70;1.00;;;;;;5072716;28;20772;-57
2023/07/13 08:39:02;;;;;;;0.90;0.40;;;23.70;1.00;;;;;;5068759;28;20431;-54
2023/07/13 08:41:30;;;;;;;1.10;0.40;;;23.80;1.00;;;;;;5066726;28;20429;-55
2023/07/13 08:44:00;;;;;;;1.25;0.30;;;23.90;1.00;;;;;;5066119;28;20512;-56
2023/07/13 08:46:32;;;;;;;0.60;0.30;;;24.20;1.00;;;;;;5064399;28;20454;-54
2023/07/13 08:49:04;;;;;;;0.88;0.40;;;24.40;1.00;;;;;;5073788;28;20438;-54
2023/07/13 08:51:39;;;;;;;0.60;0.30;;;24.50;1.00;;;;;;5069945;28;20476;-54
2023/07/13 08:54:13;;;;;;;0.60;0.30;;;24.50;1.00;;;;;;5069672;28;20427;-53
2023/07/13 08:56:40;;;;;;;1.20;0.40;;;24.20;1.00;;;;;;5073610;28;20537;-55
2023/07/13 08:59:13;;;;;;;0.80;0.30;;;24.20;1.00;;;;;;5073873;28;20731;-53
2023/07/13 09:02:02;;;;;;;0.60;0.30;;;24.20;1.00;;;;;;5069539;28;20470;-54
2023/07/13 09:04:36;;;;;;;0.80;0.40;;;24.50;1.00;;;;;;5057257;28;20436;-53
2023/07/13 09:07:12;;;;;;;0.70;0.30;;;24.80;1.00;;;;;;5073465;28;20548;-55
2023/07/13 09:09:56;;;;;;;1.00;0.40;;;24.50;1.00;;;;;;5059661;28;20437;-54
2023/07/13 09:12:33;;;;;;;0.50;0.30;;;24.20;1.00;;;;;;5054419;28;20856;-53
2023/07/13 09:15:04;;;;;;;1.10;0.30;;;24.10;1.00;;;;;;5066028;28;20427;-51
2023/07/13 09:17:35;;;;;;;0.60;0.30;;;24.30;1.00;;;;;;5072595;28;20871;-54
2023/07/13 09:20:10;;;;;;;0.52;0.30;;;24.60;1.00;;;;;;5069754;28;20692;-54
2023/07/13 09:22:39;;;;;;;0.90;0.40;;;24.90;1.00;;;;;;5074072;28;20851;-50
2023/07/13 09:25:13;;;;;;;1.20;0.40;;;25.10;1.00;;;;;;5074031;28;20851;-53
2023/07/13 09:27:43;;;;;;;0.70;0.40;;;25.40;1.00;;;;;;5068747;28;20434;-51
2023/07/13 09:30:25;;;;;;;0.60;0.30;;;25.50;1.00;;;;;;5089672;28;20434;-52
2023/07/13 09:32:54;;;;;;;1.50;0.40;;;25.40;1.00;;;;;;5080305;28;20428;-54
2023/07/13 09:35:27;;;;;;;0.90;0.38;;;25.40;1.00;;;;;;5052234;28;20861;-51
2023/07/13 09:37:59;;;;;;;0.70;0.30;;;25.50;1.00;;;;;;5061718;28;20437;-53
2023/07/13 09:40:35;;;;;;;0.93;0.30;;;25.30;1.00;;;;;;5055253;28;20435;-50
2023/07/13 09:43:04;;;;;;;0.90;0.30;;;25.00;1.00;;;;;;5057713;28;20930;-56
2023/07/13 09:45:34;;;;;;;0.70;0.40;;;25.00;1.00;;;;;;5061139;28;20442;-50
2023/07/13 09:48:06;;;;;;;0.50;0.30;;;25.10;1.00;;;;;;5066815;28;20858;-54
2023/07/13 09:50:35;;;;;;;1.60;0.40;;;25.20;1.00;;;;;;5070448;28;20423;-54
2023/07/13 09:53:03;;;;;;;1.40;0.40;;;25.40;1.00;;;;;;5071750;28;20451;-52
2023/07/13 09:55:34;;;;;;;0.77;0.30;;;25.60;1.00;;;;;;5073076;28;20435;-50
2023/07/13 09:58:06;;;;;;;1.10;0.30;;;25.40;1.00;;;;;;5064402;28;20799;-54
2023/07/13 10:00:33;;;;;;;1.10;0.30;;;25.30;1.00;;;;;;5066057;28;20528;-55
2023/07/13 10:03:04;;;;;;;0.90;0.40;;;25.30;1.00;;;;;;5072848;28;20488;-56
2023/07/13 10:05:41;;;;;;;2.40;0.40;;;25.40;1.00;;;;;;5073468;28;20898;-54
2023/07/13 10:08:18;;;;;;;1.33;0.70;;;25.60;1.00;;;;;;5070958;28;20428;-57
2023/07/13 10:10:46;;;;;;;0.70;0.32;;;25.40;1.00;;;;;;5072388;28;20530;-57
2023/07/13 10:13:31;;;;;;;0.50;0.40;;;25.50;1.00;;;;;;5072220;28;20427;-56
2023/07/13 10:16:00;;;;;;;1.00;0.40;;;25.50;1.00;;;;;;5071269;28;20423;-56
2023/07/13 10:18:29;;;;;;;1.40;0.40;;;25.60;1.00;;;;;;5071279;28;20947;-54
2023/07/13 10:21:11;;;;;;;0.60;0.40;;;25.70;1.00;;;;;;5072625;28;20431;-56
2023/07/13 10:23:38;;;;;;;1.10;0.40;;;25.60;1.00;;;;;;5072946;28;20843;-55
2023/07/13 10:26:10;;;;;;;0.60;0.30;;;25.90;1.00;;;;;;5071538;28;20419;-56
2023/07/13 10:28:39;;;;;;;0.60;0.40;;;26.00;1.00;;;;;;5071586;28;20435;-55
2023/07/13 10:31:12;;;;;;;0.63;0.30;;;26.20;1.00;;;;;;5059267;28;20440;-53
2023/07/13 10:33:39;;;;;;;1.40;0.30;;;26.50;1.00;;;;;;5051857;28;20413;-57
2023/07/13 10:36:30;;;;;;;0.60;0.40;;;26.90;1.00;;;;;;5052581;28;20772;-55
2023/07/13 10:39:00;;;;;;;0.70;0.30;;;27.20;1.00;;;;;;5049803;28;20437;-57
2023/07/13 10:41:30;;;;;;;0.83;0.40;;;27.50;1.00;;;;;;5051080;28;20821;-56
2023/07/13 10:43:59;;;;;;;1.13;0.30;;;27.60;1.00;;;;;;5050871;28;20425;-56
2023/07/13 10:46:29;;;;;;;0.70;0.40;;;27.50;1.00;;;;;;5051251;28;20433;-55
2023/07/13 10:48:59;;;;;;;1.20;0.50;;;27.50;1.00;;;;;;5050266;28;20437;-58
2023/07/13 10:51:29;;;;;;;1.40;0.30;;;27.00;1.00;;;;;;5050821;28;20953;-58
2023/07/13 10:54:12;;;;;;;0.60;0.40;;;26.50;1.00;;;;;;5051569;28;20503;-58
2023/07/13 10:56:41;;;;;;;0.80;0.40;;;26.80;1.00;;;;;;5051237;28;20954;-55
2023/07/13 10:59:14;;;;;;;0.40;0.30;;;26.90;1.00;;;;;;5049361;28;20624;-55
2023/07/13 11:01:51;;;;;;;0.63;0.40;;;26.90;1.00;;;;;;5049809;28;20473;-56
2023/07/13 11:04:21;;;;;;;1.10;0.30;;;27.40;1.00;;;;;;5051796;28;20429;-57
2023/07/13 11:06:56;;;;;;;1.00;0.30;;;27.40;1.00;;;;;;5052983;28;20425;-56
2023/07/13 11:09:36;;;;;;;0.60;0.33;;;27.60;1.00;;;;;;5051665;28;20433;-53
2023/07/13 11:12:09;;;;;;;0.90;0.40;;;27.20;1.00;;;;;;5050277;28;20436;-56
2023/07/13 11:14:38;;;;;;;0.75;0.40;;;27.20;1.00;;;;;;5051202;28;20412;-57
2023/07/13 11:17:26;;;;;;;0.88;0.30;;;27.40;1.00;;;;;;5052451;28;20937;-59
2023/07/13 11:19:53;;;;;;;0.50;0.40;;;27.00;1.00;;;;;;5051575;28;20440;-58
2023/07/13 11:22:42;;;;;;;0.50;0.30;;;27.00;1.00;;;;;;5059014;28;20569;-58
2023/07/13 11:25:28;;;;;;;0.68;0.30;;;27.20;1.00;;;;;;5069852;28;20436;-57
2023/07/13 11:28:12;;;;;;;0.90;0.30;;;27.40;1.00;;;;;;5050080;28;20875;-55
2023/07/13 11:30:42;;;;;;;0.60;0.40;;;27.40;1.00;;;;;;5050765;28;21008;-58
2023/07/13 11:33:17;;;;;;;0.60;0.40;;;27.40;1.00;;;;;;5053357;28;20949;-57
2023/07/13 11:35:59;;;;;;;0.55;0.30;;;27.60;1.00;;;;;;5063310;28;20914;-58
2023/07/13 11:38:36;;;;;;;1.25;0.38;;;28.30;1.00;;;;;;5063943;28;20421;-57
2023/07/13 11:41:07;;;;;;;1.60;0.40;;;28.30;1.00;;;;;;5057785;28;20427;-56
2023/07/13 11:43:34;;;;;;;0.73;0.40;;;28.80;1.00;;;;;;5063764;28;20450;-57
2023/07/13 11:46:15;;;;;;;0.50;0.30;;;29.50;1.00;;;;;;5052278;28;20503;-58
2023/07/13 11:48:42;;;;;;;0.40;0.30;;;29.70;1.00;;;;;;5053126;28;20447;-58
2023/07/13 11:51:20;;;;;;;0.67;0.30;;;29.30;1.00;;;;;;5083567;28;20547;-57
2023/07/13 11:53:51;;;;;;;0.80;0.40;;;28.80;1.00;;;;;;5089909;28;20425;-58
2023/07/13 11:56:19;;;;;;;0.60;0.38;;;28.90;1.00;;;;;;5091643;28;20436;-58
2023/07/13 11:58:50;;;;;;;0.90;0.30;;;28.90;1.00;;;;;;5092022;28;20430;-58
2023/07/13 12:01:21;;;;;;;0.80;0.40;;;28.90;1.00;;;;;;5090961;28;20429;-57
2023/07/13 12:03:50;;;;;;;0.60;0.30;;;28.50;1.00;;;;;;5088410;28;20438;-59
2023/07/13 12:06:29;;;;;;;0.60;0.30;;;28.20;1.00;;;;;;5084455;28;20442;-57
2023/07/13 12:09:03;;;;;;;0.80;0.40;;;28.80;1.00;;;;;;5074411;28;20846;-57
2023/07/13 12:11:31;;;;;;;0.60;0.30;;;29.20;1.00;;;;;;5073142;28;20419;-55
2023/07/13 12:13:58;;;;;;;0.60;0.30;;;29.20;1.00;;;;;;5072308;28;20415;-57
2023/07/13 12:16:29;;;;;;;0.60;0.30;;;29.10;1.00;;;;;;5072688;28;21091;-56
2023/07/13 12:18:57;;;;;;;0.60;0.40;;;29.40;1.00;;;;;;5075891;28;20917;-58
2023/07/13 12:21:31;;;;;;;0.80;0.30;;;29.90;1.00;;;;;;5075232;28;20435;-57
2023/07/13 12:23:59;;;;;;;0.65;0.35;;;30.30;1.00;;;;;;5072482;28;21018;-57
2023/07/13 12:26:27;;;;;;;0.80;0.40;;;30.30;1.00;;;;;;5063984;28;20419;-59
2023/07/13 12:28:56;;;;;;;0.60;0.30;;;30.30;1.00;;;;;;5069342;28;20423;-56
2023/07/13 12:31:32;;;;;;;0.70;0.40;;;29.60;1.00;;;;;;5073854;28;20462;-57
2023/07/13 12:34:02;;;;;;;0.50;0.30;;;29.50;1.00;;;;;;5073134;28;20427;-57
2023/07/13 12:36:33;;;;;;;1.10;0.40;;;29.40;1.00;;;;;;5065358;28;20774;-56
2023/07/13 12:39:05;;;;;;;0.70;0.30;;;29.00;1.00;;;;;;5067505;28;20448;-58
2023/07/13 12:41:34;;;;;;;0.80;0.40;;;29.20;1.00;;;;;;5053354;28;21000;-51
2023/07/13 12:44:01;;;;;;;1.20;0.40;;;29.30;1.00;;;;;;5069740;28;20463;-57
2023/07/13 12:46:29;;;;;;;1.50;0.38;;;29.50;1.00;;;;;;5054795;28;20438;-54
2023/07/13 12:48:58;;;;;;;1.60;0.40;;;29.50;1.00;;;;;;5075884;28;20462;-57
2023/07/13 12:51:28;;;;;;;0.60;0.40;;;29.70;1.00;;;;;;5075266;28;20530;-56
2023/07/13 12:53:59;;;;;;;1.10;0.40;;;30.00;1.00;;;;;;5073637;28;20846;-56
2023/07/13 12:56:29;;;;;;;1.20;0.50;;;30.20;1.00;;;;;;5074389;28;20415;-57
2023/07/13 12:59:03;;;;;;;2.55;0.40;;;30.00;1.00;;;;;;5068068;28;20423;-57
2023/07/13 13:01:37;;;;;;;1.00;0.30;;;30.00;1.00;;;;;;5074079;28;20516;-58
2023/07/13 13:04:06;;;;;;;0.73;0.40;;;30.20;1.00;;;;;;5067336;28;20434;-59
2023/07/13 13:06:35;;;;;;;0.60;0.40;;;30.10;1.00;;;;;;5070968;28;20562;-58
2023/07/13 13:09:03;;;;;;;0.70;0.40;;;30.00;1.00;;;;;;5068697;28;20856;-57